Time;durP1;ratioP1;P1;durP2;ratioP2;P2;SDS_P1;SDS_P2;PMS_P1;PMS_P2;Temp;Humidity;BMP_temperature;BMP_pressure;BME280_temperature;BME280_humidity;BME280_pressure;Samples;Min_cycle;Max_cycle;Signal;HPM_P1;HPM_P2
2022/01/14 09:52:54;;;;;;;0.00;0.00;;;;;;;;;;5081871;27;20570;-74
2022/01/14 09:55:22;;;;;;;0.00;0.00;;;;;;;;;;5074587;28;20206;-77
2022/01/14 09:57:49;;;;;;;0.10;0.10;;;;;;;;;;5078383;28;20206;-73
2022/01/14 10:00:17;;;;;;;0.27;0.27;;;;;;;;;;5070648;28;20200;-72
2022/01/14 10:02:44;;;;;;;0.00;0.00;;;;;;;;;;5070682;28;20261;-72
2022/01/14 10:05:32;;;;;;;0.60;0.60;;;;;;;;;;5069280;28;20198;-75
2022/01/14 10:08:09;;;;;;;0.10;0.10;;;;;;;;;;5072642;28;20190;-75
2022/01/14 10:10:38;;;;;;;0.00;0.00;;;;;;;;;;5068189;28;20200;-72
2022/01/14 10:13:13;;;;;;;0.00;0.00;;;;;;;;;;5069270;28;20648;-75
2022/01/14 10:15:44;;;;;;;0.00;0.00;;;;;;;;;;5069905;28;20209;-72
2022/01/14 10:18:14;;;;;;;0.57;0.57;;;;;;;;;;5070148;28;20203;-71
2022/01/14 10:20:41;;;;;;;0.47;0.47;;;;;;;;;;5069993;28;20210;-74
2022/01/14 10:23:12;;;;;;;0.00;0.00;;;;;;;;;;5067857;28;20241;-77
2022/01/14 10:25:40;;;;;;;0.03;0.03;;;;;;;;;;5083202;28;20663;-77
2022/01/14 10:28:17;;;;;;;1.00;1.00;;;;;;;;;;5075534;28;20337;-73
2022/01/14 10:30:46;;;;;;;0.70;0.70;;;;;;;;;;5067275;28;20582;-73
2022/01/14 10:33:13;;;;;;;0.53;0.43;;;;;;;;;;5071912;28;20213;-77
2022/01/14 10:35:42;;;;;;;0.53;0.50;;;;;;;;;;5081228;28;20624;-74
2022/01/14 10:38:12;;;;;;;0.00;0.00;;;;;;;;;;5076123;28;20769;-72
2022/01/14 10:40:44;;;;;;;0.60;0.60;;;;;;;;;;5081087;28;21151;-69
2022/01/14 10:43:12;;;;;;;0.27;0.27;;;;;;;;;;5081383;28;20206;-72
2022/01/14 10:45:41;;;;;;;0.47;0.47;;;;;;;;;;5080674;28;20219;-72
2022/01/14 10:48:09;;;;;;;2.10;1.90;;;;;;;;;;5079745;28;20206;-71
2022/01/14 10:50:38;;;;;;;0.77;0.50;;;;;;;;;;5081802;28;20656;-69
2022/01/14 10:53:09;;;;;;;0.93;0.93;;;;;;;;;;5083632;28;20226;-73
2022/01/14 10:55:39;;;;;;;0.10;0.10;;;;;;;;;;5080788;28;20253;-69
2022/01/14 10:58:11;;;;;;;0.00;0.00;;;;;;;;;;5080644;28;20198;-72
2022/01/14 11:00:40;;;;;;;0.00;0.00;;;;;;;;;;5081514;28;20198;-72
2022/01/14 11:03:08;;;;;;;0.10;0.10;;;;;;;;;;5076151;28;20198;-75
2022/01/14 11:05:35;;;;;;;0.50;0.50;;;;;;;;;;5065203;28;20619;-70
2022/01/14 11:08:04;;;;;;;0.00;0.00;;;;;;;;;;5067362;28;20227;-75
2022/01/14 11:10:33;;;;;;;0.00;0.00;;;;;;;;;;5065129;28;20208;-75
2022/01/14 11:13:02;;;;;;;0.33;0.33;;;;;;;;;;5069242;28;20227;-73
2022/01/14 11:15:31;;;;;;;0.00;0.00;;;;;;;;;;5064354;28;20676;-74
2022/01/14 11:18:01;;;;;;;0.00;0.00;;;;;;;;;;5055869;28;20203;-71
2022/01/14 11:20:32;;;;;;;0.00;0.00;;;;;;;;;;5057810;28;20204;-70
2022/01/14 11:23:17;;;;;;;0.00;0.00;;;;;;;;;;5065056;28;20206;-69
2022/01/14 11:25:46;;;;;;;0.00;0.00;;;;;;;;;;5067809;28;20196;-69
2022/01/14 11:28:16;;;;;;;0.00;0.00;;;;;;;;;;5067328;28;20209;-70
2022/01/14 11:30:44;;;;;;;0.00;0.00;;;;;;;;;;5069151;28;20231;-71
2022/01/14 11:33:11;;;;;;;0.00;0.00;;;;;;;;;;5068759;28;20226;-70
2022/01/14 11:35:40;;;;;;;0.00;0.00;;;;;;;;;;5065172;28;20209;-69
2022/01/14 11:38:25;;;;;;;0.00;0.00;;;;;;;;;;5066384;28;20228;-73
2022/01/14 11:40:52;;;;;;;0.10;0.10;;;;;;;;;;5061972;28;20214;-72
2022/01/14 11:43:38;;;;;;;0.00;0.00;;;;;;;;;;5065659;28;20210;-70
2022/01/14 11:46:10;;;;;;;0.00;0.00;;;;;;;;;;5068712;28;20721;-72
2022/01/14 11:48:41;;;;;;;0.00;0.00;;;;;;;;;;5069603;28;20198;-69
2022/01/14 11:51:09;;;;;;;0.00;0.00;;;;;;;;;;5069082;28;20660;-71
2022/01/14 11:53:38;;;;;;;0.00;0.00;;;;;;;;;;5067471;28;20648;-70
2022/01/14 11:56:08;;;;;;;0.50;0.50;;;;;;;;;;5067959;28;20553;-75
2022/01/14 11:58:35;;;;;;;0.00;0.00;;;;;;;;;;5063615;28;20192;-74
2022/01/14 12:01:04;;;;;;;0.00;0.00;;;;;;;;;;5066699;28;20206;-70
2022/01/14 12:03:33;;;;;;;0.00;0.00;;;;;;;;;;5065416;28;20283;-69
2022/01/14 12:06:02;;;;;;;0.00;0.00;;;;;;;;;;5068210;28;20199;-71
2022/01/14 12:08:31;;;;;;;0.00;0.00;;;;;;;;;;5064480;28;20253;-72
2022/01/14 12:11:14;;;;;;;0.00;0.00;;;;;;;;;;5066432;28;20201;-69
2022/01/14 12:13:53;;;;;;;0.07;0.07;;;;;;;;;;5064278;28;20281;-66
2022/01/14 12:16:38;;;;;;;0.00;0.00;;;;;;;;;;5066414;28;20207;-68
2022/01/14 12:19:11;;;;;;;0.00;0.00;;;;;;;;;;5065889;28;20722;-69
2022/01/14 12:22:03;;;;;;;0.00;0.00;;;;;;;;;;5067735;28;20195;-66
2022/01/14 12:24:35;;;;;;;0.00;0.00;;;;;;;;;;5055233;28;20672;-66
2022/01/14 12:27:22;;;;;;;0.00;0.00;;;;;;;;;;5068006;28;20864;-66
2022/01/14 12:29:51;;;;;;;0.00;0.00;;;;;;;;;;5066045;28;20295;-67
2022/01/14 12:32:19;;;;;;;0.00;0.00;;;;;;;;;;5061946;28;20231;-67
2022/01/14 12:35:01;;;;;;;0.00;0.00;;;;;;;;;;5064656;28;20346;-68
2022/01/14 12:37:29;;;;;;;0.30;0.30;;;;;;;;;;5067508;28;20195;-71
2022/01/14 12:39:58;;;;;;;0.53;0.53;;;;;;;;;;5065900;28;20209;-67
2022/01/14 12:42:26;;;;;;;0.00;0.00;;;;;;;;;;5066262;28;20191;-66
2022/01/14 12:44:54;;;;;;;0.00;0.00;;;;;;;;;;5067054;28;20191;-67
2022/01/14 12:47:24;;;;;;;0.00;0.00;;;;;;;;;;5065213;28;20657;-67
2022/01/14 12:49:52;;;;;;;0.00;0.00;;;;;;;;;;5064812;28;20203;-67
2022/01/14 12:52:30;;;;;;;0.00;0.00;;;;;;;;;;5064080;28;20794;-71
2022/01/14 12:54:58;;;;;;;0.30;0.30;;;;;;;;;;5067184;28;20294;-68
2022/01/14 12:57:26;;;;;;;0.20;0.20;;;;;;;;;;5065500;28;20588;-67
2022/01/14 12:59:54;;;;;;;0.10;0.10;;;;;;;;;;5066204;28;20663;-71
2022/01/14 13:02:22;;;;;;;0.30;0.30;;;;;;;;;;5066102;28;20194;-75
2022/01/14 13:05:00;;;;;;;0.00;0.00;;;;;;;;;;5063817;28;20206;-69
2022/01/14 13:07:29;;;;;;;0.00;0.00;;;;;;;;;;5067180;28;20213;-71
2022/01/14 13:09:56;;;;;;;0.00;0.00;;;;;;;;;;5065862;28;20199;-67
2022/01/14 13:12:28;;;;;;;0.00;0.00;;;;;;;;;;5056053;28;20230;-67
2022/01/14 13:14:59;;;;;;;0.00;0.00;;;;;;;;;;5063379;28;20643;-75
2022/01/14 13:17:27;;;;;;;1.00;1.00;;;;;;;;;;5065168;28;20688;-68
2022/01/14 13:19:58;;;;;;;0.03;0.03;;;;;;;;;;5065848;28;20668;-68
2022/01/14 13:22:28;;;;;;;0.00;0.00;;;;;;;;;;5063511;28;20199;-68
2022/01/14 13:24:57;;;;;;;0.00;0.00;;;;;;;;;;5061910;28;20207;-68
2022/01/14 13:27:26;;;;;;;0.57;0.57;;;;;;;;;;5059552;28;20222;-68
2022/01/14 13:29:54;;;;;;;0.00;0.00;;;;;;;;;;5063380;28;20199;-67
2022/01/14 13:32:22;;;;;;;0.00;0.00;;;;;;;;;;5061103;28;20592;-70
2022/01/14 13:34:51;;;;;;;0.00;0.00;;;;;;;;;;5063079;28;20214;-68
2022/01/14 13:37:20;;;;;;;0.00;0.00;;;;;;;;;;5064976;28;20683;-67
2022/01/14 13:40:00;;;;;;;0.00;0.00;;;;;;;;;;5061861;28;20209;-67
2022/01/14 13:42:29;;;;;;;0.00;0.00;;;;;;;;;;5065287;28;20210;-67
2022/01/14 13:45:05;;;;;;;0.00;0.00;;;;;;;;;;5063412;28;20232;-67
2022/01/14 13:47:35;;;;;;;1.03;0.57;;;;;;;;;;5065307;28;20687;-66
2022/01/14 13:50:13;;;;;;;0.00;0.00;;;;;;;;;;5064828;28;20210;-68
2022/01/14 13:52:44;;;;;;;0.00;0.00;;;;;;;;;;5064551;28;20565;-67
2022/01/14 13:55:13;;;;;;;0.00;0.00;;;;;;;;;;5064387;28;20198;-67
2022/01/14 13:57:42;;;;;;;0.10;0.10;;;;;;;;;;5065284;28;20202;-67
2022/01/14 14:00:11;;;;;;;0.33;0.33;;;;;;;;;;5066056;28;20253;-65
2022/01/14 14:02:47;;;;;;;0.20;0.20;;;;;;;;;;5065726;28;20214;-66
2022/01/14 14:05:29;;;;;;;0.37;0.37;;;;;;;;;;5066723;28;20198;-67
2022/01/14 14:08:06;;;;;;;0.00;0.00;;;;;;;;;;5065066;28;20202;-66
2022/01/14 14:11:33;;;;;;;0.00;0.00;;;;;;;;;;5066179;28;20256;-67
2022/01/14 14:16:26;;;;;;;0.10;0.10;;;;;;;;;;5056412;28;20876;-65
2022/01/14 14:18:56;;;;;;;0.00;0.00;;;;;;;;;;5065068;28;20230;-67
2022/01/14 14:21:24;;;;;;;0.00;0.00;;;;;;;;;;5065564;28;20210;-67
2022/01/14 14:23:55;;;;;;;0.00;0.00;;;;;;;;;;5060793;28;20199;-66
2022/01/14 14:26:32;;;;;;;0.00;0.00;;;;;;;;;;5063323;28;20676;-66
2022/01/14 14:29:03;;;;;;;0.10;0.10;;;;;;;;;;5064757;28;20899;-68
2022/01/14 14:31:32;;;;;;;0.00;0.00;;;;;;;;;;5064503;28;20668;-68
2022/01/14 14:33:59;;;;;;;0.00;0.00;;;;;;;;;;5063708;28;20219;-67
2022/01/14 14:36:28;;;;;;;0.00;0.00;;;;;;;;;;5065804;28;20575;-68
2022/01/14 14:38:56;;;;;;;0.00;0.00;;;;;;;;;;5069033;28;20215;-67
2022/01/14 14:41:24;;;;;;;0.00;0.00;;;;;;;;;;5069450;28;20567;-67
2022/01/14 14:43:52;;;;;;;0.43;0.43;;;;;;;;;;5067525;28;20264;-67
2022/01/14 14:46:21;;;;;;;0.00;0.00;;;;;;;;;;5070536;28;20199;-68
2022/01/14 14:48:49;;;;;;;0.10;0.10;;;;;;;;;;5067761;28;20199;-68
2022/01/14 14:51:17;;;;;;;0.63;0.43;;;;;;;;;;5067007;28;20318;-67
2022/01/14 14:53:45;;;;;;;0.20;0.20;;;;;;;;;;5067792;28;20211;-66
2022/01/14 14:56:13;;;;;;;0.67;0.30;;;;;;;;;;5070656;28;20226;-66
2022/01/14 14:58:40;;;;;;;0.00;0.00;;;;;;;;;;5066624;28;20210;-67
2022/01/14 15:01:09;;;;;;;0.47;0.47;;;;;;;;;;5068196;28;20273;-68
2022/01/14 15:03:39;;;;;;;0.20;0.20;;;;;;;;;;5063233;28;20272;-67
2022/01/14 15:06:08;;;;;;;0.00;0.00;;;;;;;;;;5065661;28;20206;-68
2022/01/14 15:08:35;;;;;;;0.60;0.60;;;;;;;;;;5065977;28;20248;-70
2022/01/14 15:11:02;;;;;;;0.30;0.30;;;;;;;;;;5068187;28;20211;-70
2022/01/14 15:13:30;;;;;;;0.00;0.00;;;;;;;;;;5063750;28;21207;-71
2022/01/14 15:18:56;;;;;;;0.00;0.00;;;;;;;;;;5020957;28;20211;-67
2022/01/14 15:21:23;;;;;;;1.57;1.10;;;;;;;;;;5053827;28;20206;-71
2022/01/14 15:23:51;;;;;;;0.00;0.00;;;;;;;;;;5061129;28;20303;-71
2022/01/14 15:26:20;;;;;;;0.07;0.07;;;;;;;;;;5065874;28;20231;-73
2022/01/14 15:28:48;;;;;;;0.00;0.00;;;;;;;;;;5068211;28;20668;-68
2022/01/14 15:31:16;;;;;;;0.10;0.10;;;;;;;;;;5066448;28;20199;-68
2022/01/14 15:33:43;;;;;;;0.00;0.00;;;;;;;;;;5067673;28;20223;-66
2022/01/14 15:36:12;;;;;;;0.00;0.00;;;;;;;;;;5068132;28;20210;-69
2022/01/14 15:38:39;;;;;;;0.10;0.10;;;;;;;;;;5070071;28;20199;-67
2022/01/14 15:41:07;;;;;;;0.00;0.00;;;;;;;;;;5069765;28;20203;-67
2022/01/14 15:43:35;;;;;;;0.30;0.30;;;;;;;;;;5068288;28;20206;-72
2022/01/14 15:46:03;;;;;;;0.00;0.00;;;;;;;;;;5066397;28;20301;-68
2022/01/14 15:48:31;;;;;;;0.00;0.00;;;;;;;;;;5069062;28;20558;-69
2022/01/14 15:50:58;;;;;;;1.10;0.43;;;;;;;;;;5064217;28;20228;-68
2022/01/14 15:53:27;;;;;;;0.00;0.00;;;;;;;;;;5071550;28;20702;-67
2022/01/14 15:55:55;;;;;;;0.00;0.00;;;;;;;;;;5066943;28;20195;-67
2022/01/14 15:58:23;;;;;;;0.30;0.30;;;;;;;;;;5066829;28;20204;-67
2022/01/14 16:00:51;;;;;;;1.33;0.90;;;;;;;;;;5059943;28;20195;-67
2022/01/14 16:03:18;;;;;;;0.00;0.00;;;;;;;;;;5066270;28;20199;-68
2022/01/14 16:05:46;;;;;;;0.73;0.73;;;;;;;;;;5054979;28;20483;-67
2022/01/14 16:08:14;;;;;;;0.10;0.10;;;;;;;;;;5055164;28;20221;-65
2022/01/14 16:10:43;;;;;;;0.50;0.50;;;;;;;;;;5049396;28;20541;-67
2022/01/14 16:13:14;;;;;;;0.00;0.00;;;;;;;;;;5048070;28;20314;-67
2022/01/14 16:15:42;;;;;;;0.30;0.10;;;;;;;;;;5063112;28;20252;-68
2022/01/14 16:18:09;;;;;;;0.00;0.00;;;;;;;;;;5056162;28;20210;-67
2022/01/14 16:20:37;;;;;;;1.03;0.53;;;;;;;;;;5067504;28;20286;-67
2022/01/14 16:23:04;;;;;;;0.00;0.00;;;;;;;;;;5062709;28;20194;-67
2022/01/14 16:25:33;;;;;;;0.00;0.00;;;;;;;;;;5064329;28;20679;-67
2022/01/14 16:28:02;;;;;;;0.00;0.00;;;;;;;;;;5066432;28;20203;-67
2022/01/14 16:30:29;;;;;;;0.10;0.10;;;;;;;;;;5067730;28;20206;-68
2022/01/14 16:32:57;;;;;;;0.00;0.00;;;;;;;;;;5067570;28;20267;-67
2022/01/14 16:35:24;;;;;;;0.00;0.00;;;;;;;;;;5067936;28;20195;-67
2022/01/14 16:37:52;;;;;;;0.67;0.67;;;;;;;;;;5061496;28;20199;-67
2022/01/14 16:40:19;;;;;;;0.00;0.00;;;;;;;;;;5067456;28;20668;-66
2022/01/14 16:42:50;;;;;;;0.00;0.00;;;;;;;;;;5068466;28;20791;-66
2022/01/14 16:45:19;;;;;;;0.00;0.00;;;;;;;;;;5066094;28;20205;-67
2022/01/14 16:47:49;;;;;;;0.27;0.27;;;;;;;;;;5066838;28;20202;-67
2022/01/14 16:50:16;;;;;;;0.63;0.63;;;;;;;;;;5067840;28;20256;-66
2022/01/14 16:52:45;;;;;;;0.10;0.10;;;;;;;;;;5064879;28;20227;-67
2022/01/14 16:55:14;;;;;;;0.00;0.00;;;;;;;;;;5064966;28;20199;-67
2022/01/14 16:57:42;;;;;;;0.10;0.10;;;;;;;;;;5065595;28;20191;-66
2022/01/14 17:00:11;;;;;;;0.30;0.30;;;;;;;;;;5067231;28;20568;-66
2022/01/14 17:02:40;;;;;;;0.47;0.47;;;;;;;;;;5065947;28;20207;-66
2022/01/14 17:05:08;;;;;;;1.50;1.37;;;;;;;;;;5066009;28;20552;-68
2022/01/14 17:07:35;;;;;;;0.00;0.00;;;;;;;;;;5065505;28;20199;-64
2022/01/14 17:10:03;;;;;;;0.00;0.00;;;;;;;;;;5066587;28;20209;-66
2022/01/14 17:12:31;;;;;;;0.07;0.07;;;;;;;;;;5065178;28;20199;-64
2022/01/14 17:14:58;;;;;;;0.17;0.17;;;;;;;;;;5067884;28;20589;-65
2022/01/14 17:17:26;;;;;;;0.00;0.00;;;;;;;;;;5051512;28;20214;-66
2022/01/14 17:19:55;;;;;;;0.00;0.00;;;;;;;;;;5072748;28;20201;-69
2022/01/14 17:22:22;;;;;;;0.50;0.50;;;;;;;;;;5070770;28;20218;-66
2022/01/14 17:24:49;;;;;;;0.00;0.00;;;;;;;;;;5066278;28;20207;-65
2022/01/14 17:27:17;;;;;;;0.87;0.87;;;;;;;;;;5054962;28;20188;-65
2022/01/14 17:29:44;;;;;;;0.00;0.00;;;;;;;;;;5048770;28;20199;-68
2022/01/14 17:32:11;;;;;;;0.10;0.10;;;;;;;;;;5054872;28;20195;-66
2022/01/14 17:34:40;;;;;;;0.00;0.00;;;;;;;;;;5068256;28;20230;-64
2022/01/14 17:37:09;;;;;;;0.00;0.00;;;;;;;;;;5065160;28;20207;-65
2022/01/14 17:39:36;;;;;;;1.90;1.80;;;;;;;;;;5064865;28;20191;-66
2022/01/14 17:42:04;;;;;;;0.13;0.13;;;;;;;;;;5069621;28;20555;-66
2022/01/14 17:44:32;;;;;;;0.63;0.63;;;;;;;;;;5066636;28;20248;-68
2022/01/14 17:47:00;;;;;;;1.97;1.83;;;;;;;;;;5060187;28;20199;-66
2022/01/14 17:49:28;;;;;;;0.00;0.00;;;;;;;;;;5055249;28;20223;-65
2022/01/14 17:51:59;;;;;;;0.00;0.00;;;;;;;;;;5060158;28;20230;-66
2022/01/14 17:54:28;;;;;;;0.00;0.00;;;;;;;;;;5062815;28;20250;-66
2022/01/14 17:56:56;;;;;;;2.23;0.77;;;;;;;;;;5056697;28;20207;-66
2022/01/14 17:59:24;;;;;;;0.23;0.23;;;;;;;;;;5065544;28;20253;-67
2022/01/14 18:01:51;;;;;;;0.33;0.33;;;;;;;;;;5067817;28;20187;-68
2022/01/14 18:04:19;;;;;;;0.03;0.03;;;;;;;;;;5068347;28;20217;-65
2022/01/14 18:06:49;;;;;;;0.00;0.00;;;;;;;;;;5068577;28;20686;-65
2022/01/14 18:09:17;;;;;;;1.80;1.00;;;;;;;;;;5060078;28;20222;-65
2022/01/14 18:11:54;;;;;;;0.27;0.27;;;;;;;;;;5062460;28;20660;-66
2022/01/14 18:14:24;;;;;;;0.10;0.10;;;;;;;;;;5052569;28;20223;-66
2022/01/14 18:16:53;;;;;;;0.47;0.27;;;;;;;;;;5065907;28;20219;-67
2022/01/14 18:19:21;;;;;;;0.10;0.10;;;;;;;;;;5078906;28;20190;-67
2022/01/14 18:21:48;;;;;;;0.87;0.87;;;;;;;;;;5081962;28;20664;-67
2022/01/14 18:24:15;;;;;;;0.10;0.10;;;;;;;;;;5072315;28;20679;-67
2022/01/14 18:26:43;;;;;;;0.57;0.57;;;;;;;;;;5068919;28;20195;-67
2022/01/14 18:29:12;;;;;;;0.30;0.30;;;;;;;;;;5071655;28;20191;-67
2022/01/14 18:31:41;;;;;;;0.00;0.00;;;;;;;;;;5069319;28;20205;-66
2022/01/14 18:34:09;;;;;;;0.00;0.00;;;;;;;;;;5056785;28;20223;-66
2022/01/14 18:36:37;;;;;;;0.00;0.00;;;;;;;;;;5059082;28;20195;-65
2022/01/14 18:39:05;;;;;;;0.30;0.30;;;;;;;;;;5085123;28;20588;-66
2022/01/14 18:41:32;;;;;;;0.70;0.70;;;;;;;;;;5076740;28;20678;-66
2022/01/14 18:44:00;;;;;;;0.00;0.00;;;;;;;;;;5071309;28;20195;-67
2022/01/14 18:46:29;;;;;;;0.27;0.27;;;;;;;;;;5068880;28;20199;-67
2022/01/14 18:48:58;;;;;;;0.00;0.00;;;;;;;;;;5072023;28;20195;-66
2022/01/14 18:51:26;;;;;;;0.00;0.00;;;;;;;;;;5069394;28;20242;-66
2022/01/14 18:53:54;;;;;;;4.20;2.70;;;;;;;;;;5058968;28;20239;-67
2022/01/14 18:56:23;;;;;;;0.97;0.20;;;;;;;;;;5064497;28;20199;-67
2022/01/14 18:58:51;;;;;;;2.43;2.23;;;;;;;;;;5060335;28;20557;-67
2022/01/14 19:01:19;;;;;;;0.00;0.00;;;;;;;;;;5051630;28;20752;-67
2022/01/14 19:03:47;;;;;;;0.00;0.00;;;;;;;;;;5055806;28;20199;-67
2022/01/14 19:06:15;;;;;;;2.83;2.63;;;;;;;;;;5060212;28;20199;-67
2022/01/14 19:08:42;;;;;;;2.80;2.70;;;;;;;;;;5066787;28;20199;-68
2022/01/14 19:11:11;;;;;;;0.80;0.80;;;;;;;;;;5067346;28;20198;-66
2022/01/14 19:13:43;;;;;;;0.47;0.40;;;;;;;;;;5069880;28;20627;-67
2022/01/14 19:16:12;;;;;;;0.00;0.00;;;;;;;;;;5069693;28;20199;-67
2022/01/14 19:18:40;;;;;;;4.10;3.73;;;;;;;;;;5070681;28;20199;-68
2022/01/14 19:21:08;;;;;;;0.00;0.00;;;;;;;;;;5054705;28;20191;-68
2022/01/14 19:23:36;;;;;;;0.23;0.23;;;;;;;;;;5067407;28;20202;-66
2022/01/14 19:26:03;;;;;;;0.00;0.00;;;;;;;;;;5066812;28;20583;-65
2022/01/14 19:28:31;;;;;;;3.93;2.47;;;;;;;;;;5056296;28;20207;-65
2022/01/14 19:30:58;;;;;;;3.00;0.70;;;;;;;;;;5051107;28;20223;-68
2022/01/14 19:33:25;;;;;;;0.77;0.77;;;;;;;;;;5050713;28;20195;-67
2022/01/14 19:35:53;;;;;;;1.80;1.20;;;;;;;;;;5051344;28;20200;-68
2022/01/14 19:38:22;;;;;;;0.40;0.40;;;;;;;;;;5062357;28;21004;-67
2022/01/14 19:40:50;;;;;;;1.97;1.83;;;;;;;;;;5070040;28;20199;-67
2022/01/14 19:43:18;;;;;;;2.27;2.17;;;;;;;;;;5057615;28;20803;-67
2022/01/14 19:45:46;;;;;;;1.70;1.60;;;;;;;;;;5064041;28;20198;-66
2022/01/14 19:48:13;;;;;;;2.30;2.03;;;;;;;;;;5071057;28;20668;-68
2022/01/14 19:50:41;;;;;;;4.90;1.83;;;;;;;;;;5061428;28;20199;-68
2022/01/14 19:53:10;;;;;;;6.43;4.87;;;;;;;;;;5070592;28;20663;-67
2022/01/14 19:55:39;;;;;;;0.73;0.73;;;;;;;;;;5070591;28;20227;-66
2022/01/14 19:58:06;;;;;;;0.87;0.80;;;;;;;;;;5055673;28;20664;-69
2022/01/14 20:00:34;;;;;;;1.20;1.10;;;;;;;;;;5050740;28;21167;-65
2022/01/14 20:03:01;;;;;;;0.23;0.23;;;;;;;;;;5053434;28;20205;-66
2022/01/14 20:05:31;;;;;;;0.13;0.13;;;;;;;;;;5070414;28;20667;-65
2022/01/14 20:07:58;;;;;;;0.17;0.17;;;;;;;;;;5068373;28;20196;-66
2022/01/14 20:10:26;;;;;;;1.87;1.17;;;;;;;;;;5054465;28;20541;-68
2022/01/14 20:12:55;;;;;;;0.30;0.30;;;;;;;;;;5055985;28;20249;-68
2022/01/14 20:15:22;;;;;;;0.57;0.57;;;;;;;;;;5058578;28;20318;-67
2022/01/14 20:17:50;;;;;;;4.40;2.47;;;;;;;;;;5068725;28;20662;-68
2022/01/14 20:20:19;;;;;;;0.30;0.30;;;;;;;;;;5085427;28;20210;-68
2022/01/14 20:22:46;;;;;;;0.00;0.00;;;;;;;;;;5067436;28;20198;-68
2022/01/14 20:25:15;;;;;;;4.10;3.80;;;;;;;;;;5060972;28;20199;-68
2022/01/14 20:27:43;;;;;;;0.00;0.00;;;;;;;;;;5069421;28;20203;-67
2022/01/14 20:30:14;;;;;;;0.00;0.00;;;;;;;;;;5069401;28;20195;-68
2022/01/14 20:32:42;;;;;;;1.57;1.47;;;;;;;;;;5070381;28;20269;-67
2022/01/14 20:35:11;;;;;;;2.03;1.50;;;;;;;;;;5062698;28;20663;-67
2022/01/14 20:37:38;;;;;;;0.03;0.03;;;;;;;;;;5059347;28;20209;-68
2022/01/14 20:40:07;;;;;;;0.90;0.87;;;;;;;;;;5058757;28;20653;-68
2022/01/14 20:42:42;;;;;;;2.13;0.77;;;;;;;;;;5062152;28;20203;-67
2022/01/14 20:45:14;;;;;;;0.10;0.10;;;;;;;;;;5068778;28;20202;-67
2022/01/14 20:47:44;;;;;;;2.80;2.60;;;;;;;;;;5067179;28;20726;-67
2022/01/14 20:50:12;;;;;;;0.00;0.00;;;;;;;;;;5051772;28;20195;-66
2022/01/14 20:52:39;;;;;;;0.53;0.53;;;;;;;;;;5050119;28;20231;-68
2022/01/14 20:55:07;;;;;;;0.00;0.00;;;;;;;;;;5069424;28;20576;-69
2022/01/14 20:57:34;;;;;;;0.57;0.57;;;;;;;;;;5050392;28;20202;-68
2022/01/14 21:00:02;;;;;;;1.37;0.73;;;;;;;;;;5049160;28;20210;-66
2022/01/14 21:02:30;;;;;;;0.40;0.40;;;;;;;;;;5051471;28;20676;-66
2022/01/14 21:04:59;;;;;;;0.00;0.00;;;;;;;;;;5049280;28;20669;-68
2022/01/14 21:07:26;;;;;;;0.00;0.00;;;;;;;;;;5049266;28;20612;-67
2022/01/14 21:09:54;;;;;;;0.00;0.00;;;;;;;;;;5052996;28;20222;-69
2022/01/14 21:12:21;;;;;;;0.87;0.87;;;;;;;;;;5052807;28;20622;-68
2022/01/14 21:14:48;;;;;;;0.00;0.00;;;;;;;;;;5049497;28;20226;-68
2022/01/14 21:17:16;;;;;;;0.00;0.00;;;;;;;;;;5051609;28;20587;-68
2022/01/14 21:19:46;;;;;;;0.57;0.20;;;;;;;;;;5048429;28;20200;-67
2022/01/14 21:22:15;;;;;;;0.20;0.20;;;;;;;;;;5056116;28;20195;-68
2022/01/14 21:24:43;;;;;;;1.10;1.10;;;;;;;;;;5055148;28;20195;-67
2022/01/14 21:27:10;;;;;;;3.50;0.70;;;;;;;;;;5063961;28;20282;-67
2022/01/14 21:29:38;;;;;;;0.20;0.20;;;;;;;;;;5069549;28;20219;-67
2022/01/14 21:32:06;;;;;;;1.90;1.80;;;;;;;;;;5067360;28;20199;-68
2022/01/14 21:34:33;;;;;;;1.60;1.40;;;;;;;;;;5049213;28;20571;-67
2022/01/14 21:37:01;;;;;;;0.00;0.00;;;;;;;;;;5068737;28;20553;-68
2022/01/14 21:39:30;;;;;;;0.20;0.20;;;;;;;;;;5054482;28;20195;-67
2022/01/14 21:41:57;;;;;;;4.13;2.43;;;;;;;;;;5065412;28;20205;-67
2022/01/14 21:44:24;;;;;;;0.87;0.87;;;;;;;;;;5067979;28;20210;-67
2022/01/14 21:46:52;;;;;;;1.30;0.50;;;;;;;;;;5066506;28;20203;-67
2022/01/14 21:49:19;;;;;;;0.93;0.93;;;;;;;;;;5048897;28;20202;-67
2022/01/14 21:51:47;;;;;;;1.57;1.47;;;;;;;;;;5048962;28;20232;-67
2022/01/14 21:54:14;;;;;;;0.10;0.10;;;;;;;;;;5067250;28;20199;-67
2022/01/14 21:56:43;;;;;;;0.00;0.00;;;;;;;;;;5067182;28;20529;-67
2022/01/14 21:59:10;;;;;;;0.00;0.00;;;;;;;;;;5048467;28;20675;-67
2022/01/14 22:01:39;;;;;;;0.40;0.40;;;;;;;;;;5058821;28;20206;-67
2022/01/14 22:04:06;;;;;;;0.80;0.80;;;;;;;;;;5050194;28;20249;-67
2022/01/14 22:06:34;;;;;;;4.13;2.73;;;;;;;;;;5048667;28;20202;-67
2022/01/14 22:09:02;;;;;;;0.10;0.10;;;;;;;;;;5049195;28;20202;-68
2022/01/14 22:11:29;;;;;;;0.23;0.23;;;;;;;;;;5054018;28;20663;-69
2022/01/14 22:14:06;;;;;;;0.73;0.73;;;;;;;;;;5068055;28;20194;-68
2022/01/14 22:16:34;;;;;;;0.00;0.00;;;;;;;;;;5058616;28;20222;-68
2022/01/14 22:19:02;;;;;;;0.03;0.03;;;;;;;;;;5069273;28;20202;-67
2022/01/14 22:21:31;;;;;;;0.00;0.00;;;;;;;;;;5060241;28;20296;-67
2022/01/14 22:23:58;;;;;;;0.40;0.40;;;;;;;;;;5050360;28;20199;-68
2022/01/14 22:26:26;;;;;;;0.00;0.00;;;;;;;;;;5057773;28;20195;-69
2022/01/14 22:28:53;;;;;;;0.00;0.00;;;;;;;;;;5048707;28;20196;-69
2022/01/14 22:31:22;;;;;;;1.80;1.00;;;;;;;;;;5047922;28;20199;-69
2022/01/14 22:33:50;;;;;;;0.27;0.27;;;;;;;;;;5047408;28;20208;-69
2022/01/14 22:36:17;;;;;;;0.00;0.00;;;;;;;;;;5050018;28;20234;-69
2022/01/14 22:38:45;;;;;;;1.00;1.00;;;;;;;;;;5046499;28;20772;-68
2022/01/14 22:41:13;;;;;;;0.10;0.10;;;;;;;;;;5049272;28;20219;-69
2022/01/14 22:43:40;;;;;;;0.57;0.57;;;;;;;;;;5049570;28;20566;-69
2022/01/14 22:46:08;;;;;;;2.00;1.90;;;;;;;;;;5058614;28;20195;-68
2022/01/14 22:48:36;;;;;;;8.77;6.03;;;;;;;;;;5060389;28;20233;-69
2022/01/14 22:51:04;;;;;;;3.70;3.40;;;;;;;;;;5058227;28;20714;-68
2022/01/14 22:53:32;;;;;;;0.30;0.30;;;;;;;;;;5056819;28;20703;-68
2022/01/14 22:56:02;;;;;;;1.40;1.33;;;;;;;;;;5054150;28;20332;-68
2022/01/14 22:58:29;;;;;;;1.40;1.30;;;;;;;;;;5056092;28;20613;-68
2022/01/14 23:00:57;;;;;;;1.07;1.00;;;;;;;;;;5065589;28;20643;-67
2022/01/14 23:03:25;;;;;;;4.23;3.83;;;;;;;;;;5056663;28;20566;-68
2022/01/14 23:05:54;;;;;;;0.00;0.00;;;;;;;;;;5050887;28;20316;-68
2022/01/14 23:08:21;;;;;;;2.83;2.70;;;;;;;;;;5052027;28;20278;-68
2022/01/14 23:10:48;;;;;;;2.13;1.93;;;;;;;;;;5055065;28;20206;-68
2022/01/14 23:13:16;;;;;;;2.90;2.80;;;;;;;;;;5055379;28;20679;-67
2022/01/14 23:15:43;;;;;;;0.00;0.00;;;;;;;;;;5064640;28;20219;-68
2022/01/14 23:18:11;;;;;;;0.30;0.30;;;;;;;;;;5047050;28;20207;-68
2022/01/14 23:20:38;;;;;;;0.30;0.30;;;;;;;;;;5056761;28;20214;-69
2022/01/14 23:23:07;;;;;;;2.00;1.90;;;;;;;;;;5055813;28;20691;-68
2022/01/14 23:25:35;;;;;;;0.40;0.40;;;;;;;;;;5047664;28;20195;-68
2022/01/14 23:28:02;;;;;;;1.50;1.40;;;;;;;;;;5050525;28;20202;-69
2022/01/14 23:30:30;;;;;;;2.87;2.60;;;;;;;;;;5049813;28;20656;-69
2022/01/14 23:32:57;;;;;;;0.43;0.43;;;;;;;;;;5059604;28;20194;-69
2022/01/14 23:35:25;;;;;;;1.00;0.93;;;;;;;;;;5049952;28;20606;-68
2022/01/14 23:37:53;;;;;;;5.83;3.03;;;;;;;;;;5055433;28;20218;-69
2022/01/14 23:40:23;;;;;;;1.43;1.37;;;;;;;;;;5053513;28;20202;-69
2022/01/14 23:42:56;;;;;;;0.10;0.10;;;;;;;;;;5051319;28;20199;-68
2022/01/14 23:45:38;;;;;;;1.83;1.30;;;;;;;;;;5055775;28;20221;-68
2022/01/14 23:48:07;;;;;;;0.47;0.47;;;;;;;;;;5053930;28;20283;-68
2022/01/14 23:50:34;;;;;;;4.20;1.93;;;;;;;;;;5049072;28;20203;-69
2022/01/14 23:53:01;;;;;;;1.53;1.23;;;;;;;;;;5051932;28;20195;-69
2022/01/14 23:55:30;;;;;;;2.27;2.17;;;;;;;;;;5049435;28;20230;-69
2022/01/14 23:57:58;;;;;;;1.90;1.80;;;;;;;;;;5049315;28;20211;-69
